Rechercher aéroport 
image banner adimage banner adimage banner ad
image banner ad

KCRQ - Mc Clellan-Palomar

Situé à Carlsbad, United States

ICAO - CRQ, IATA - CLD

Données fournies par Airmate  

Information générale

Coordonnées: N33°7'42" W117°16'48"
Élévation : 331 feet MSL.
Variation magnétique : 14° East
Voir autres Aéroports à California

Données opérationnelles

Special qualification required
Heure actuelle UTC:
Heure actuelle locale:
Météo
METAR: KCRQ 300053Z 25007KT 10SM CLR 22/17 A2986 RMK AO2 SLPNO T02170172
TAF: KCRQ 292325Z 3000/3024 27009KT P6SM SKC FM300100 26005KT P6SM FEW200 FM300800 VRB04KT 4SM BR BKN005 FM301600 VRB04KT P6SM SCT008 SCT150 FM302000 25008KT P6SM FEW008 SCT150
Voir NOTAMs / SUP AIP / TFR affectant cet aéroport [VIEW]
Fréquences de communication: [VIEW]

Pistes:

Identifiant RWYQFULongueur (ft)Largeur (ft)SurfaceLDA (ft)
0679°4897150ASPH4600
24259°4897150ASPH4897

Coordonnées de l'aéroport

Adresse: Carlsbad United States

Autres services d'aviation

Écoles de pilotage

Pinnacle Aviation Academy

Pinnacle Aviation Academy

Civic Helicopters, Inc.

Civic Helicopters, Inc.

Pacific Coast Flyers

Pacific Coast Flyers
info@pcflyers.org+1(760)845-9713

Loft

Loft
info@loft.aero+1(760)476-0890

Plus One Flyers - Crq

Plus One Flyers - Crq

Atp Flight School (800-All-Atps)

Atp Flight School (800-All-Atps)
info@allatps.com+1(800)255-2877

Blade & Wing Aviation

Blade & Wing Aviation

Vue satellite de KCRQ